sensor_id;sensor_type;location;lat;lon;timestamp;pressure;altitude;pressure_sealevel;temperature;humidity
32237;BME280;18726;44.732;10.550;2023-04-21T00:00:06;100772.47;;;12.47;100.00
32237;BME280;18726;44.732;10.550;2023-04-21T00:03:11;100776.44;;;12.50;100.00
32237;BME280;18726;44.732;10.550;2023-04-21T00:06:15;100778.16;;;12.58;100.00
32237;BME280;18726;44.732;10.550;2023-04-21T00:09:24;100777.31;;;12.54;100.00
32237;BME280;18726;44.732;10.550;2023-04-21T00:12:27;100784.88;;;12.45;100.00
32237;BME280;18726;44.732;10.550;2023-04-21T00:15:31;100780.13;;;12.42;100.00
32237;BME280;18726;44.732;10.550;2023-04-21T00:18:34;100776.44;;;12.50;100.00
32237;BME280;18726;44.732;10.550;2023-04-21T00:21:38;100776.34;;;12.46;100.00
32237;BME280;18726;44.732;10.550;2023-04-21T00:24:41;100780.31;;;12.49;100.00
32237;BME280;18726;44.732;10.550;2023-04-21T00:27:45;100768.53;;;12.45;100.00
32237;BME280;18726;44.732;10.550;2023-04-21T00:30:48;100774.69;;;12.42;100.00
32237;BME280;18726;44.732;10.550;2023-04-21T00:33:52;100773.78;;;12.54;100.00
32237;BME280;18726;44.732;10.550;2023-04-21T00:36:58;100770.19;;;12.49;100.00
32237;BME280;18726;44.732;10.550;2023-04-21T00:40:02;100766.47;;;12.58;100.00
32237;BME280;18726;44.732;10.550;2023-04-21T00:43:06;100770.34;;;12.57;100.00
32237;BME280;18726;44.732;10.550;2023-04-21T00:46:09;100768.13;;;12.62;100.00
32237;BME280;18726;44.732;10.550;2023-04-21T00:49:15;100765.59;;;12.54;100.00
32237;BME280;18726;44.732;10.550;2023-04-21T00:52:18;100765.69;;;12.57;100.00
32237;BME280;18726;44.732;10.550;2023-04-21T00:55:22;100763.41;;;12.59;100.00
32237;BME280;18726;44.732;10.550;2023-04-21T00:58:25;100772.00;;;12.61;100.00
32237;BME280;18726;44.732;10.550;2023-04-21T01:01:31;100765.75;;;12.61;100.00
32237;BME280;18726;44.732;10.550;2023-04-21T01:04:36;100762.53;;;12.55;100.00
32237;BME280;18726;44.732;10.550;2023-04-21T01:07:41;100764.47;;;12.55;100.00
32237;BME280;18726;44.732;10.550;2023-04-21T01:10:44;100763.88;;;12.45;100.00
32237;BME280;18726;44.732;10.550;2023-04-21T01:13:51;100765.09;;;12.48;100.00
32237;BME280;18726;44.732;10.550;2023-04-21T01:16:55;100760.22;;;12.38;100.00
32237;BME280;18726;44.732;10.550;2023-04-21T01:19:59;100763.88;;;12.45;100.00
32237;BME280;18726;44.732;10.550;2023-04-21T01:23:04;100764.38;;;12.51;100.00
32237;BME280;18726;44.732;10.550;2023-04-21T01:26:08;100765.25;;;12.55;100.00
32237;BME280;18726;44.732;10.550;2023-04-21T01:29:14;100769.13;;;12.54;100.00
32237;BME280;18726;44.732;10.550;2023-04-21T01:32:18;100774.22;;;12.56;100.00
32237;BME280;18726;44.732;10.550;2023-04-21T01:35:22;100776.50;;;12.54;100.00
32237;BME280;18726;44.732;10.550;2023-04-21T01:38:26;100773.88;;;12.57;100.00
32237;BME280;18726;44.732;10.550;2023-04-21T01:41:30;100773.44;;;12.55;100.00
32237;BME280;18726;44.732;10.550;2023-04-21T01:44:34;100774.28;;;12.59;100.00
32237;BME280;18726;44.732;10.550;2023-04-21T01:47:37;100771.72;;;12.66;100.00
32237;BME280;18726;44.732;10.550;2023-04-21T01:50:42;100773.59;;;12.62;100.00
32237;BME280;18726;44.732;10.550;2023-04-21T01:53:46;100774.53;;;12.70;100.00
32237;BME280;18726;44.732;10.550;2023-04-21T01:56:50;100780.63;;;12.63;100.00
32237;BME280;18726;44.732;10.550;2023-04-21T01:59:53;100767.34;;;12.62;100.00
32237;BME280;18726;44.732;10.550;2023-04-21T02:02:56;100774.56;;;12.54;100.00
32237;BME280;18726;44.732;10.550;2023-04-21T02:06:00;100778.16;;;12.58;100.00
32237;BME280;18726;44.732;10.550;2023-04-21T02:09:03;100778.59;;;12.60;100.00
32237;BME280;18726;44.732;10.550;2023-04-21T02:12:08;100774.13;;;12.52;100.00
32237;BME280;18726;44.732;10.550;2023-04-21T02:15:11;100778.53;;;12.57;100.00
32237;BME280;18726;44.732;10.550;2023-04-21T02:18:15;100781.97;;;12.54;100.00
32237;BME280;18726;44.732;10.550;2023-04-21T02:21:19;100776.50;;;12.54;100.00
32237;BME280;18726;44.732;10.550;2023-04-21T02:24:25;100775.72;;;12.53;100.00
32237;BME280;18726;44.732;10.550;2023-04-21T02:27:30;100775.56;;;12.46;100.00
32237;BME280;18726;44.732;10.550;2023-04-21T02:30:36;100784.03;;;12.41;100.00
32237;BME280;18726;44.732;10.550;2023-04-21T02:33:39;100785.19;;;12.40;100.00
32237;BME280;18726;44.732;10.550;2023-04-21T02:36:43;100777.78;;;12.40;100.00
32237;BME280;18726;44.732;10.550;2023-04-21T02:39:46;100775.44;;;12.39;100.00
32237;BME280;18726;44.732;10.550;2023-04-21T02:42:50;100775.00;;;12.56;100.00
32237;BME280;18726;44.732;10.550;2023-04-21T02:45:53;100780.81;;;12.55;100.00
32237;BME280;18726;44.732;10.550;2023-04-21T02:48:56;100788.19;;;12.54;100.00
32237;BME280;18726;44.732;10.550;2023-04-21T02:51:59;100782.22;;;12.48;100.00
32237;BME280;18726;44.732;10.550;2023-04-21T02:55:03;100781.88;;;12.50;100.00
32237;BME280;18726;44.732;10.550;2023-04-21T02:58:07;100782.75;;;12.54;100.00
32237;BME280;18726;44.732;10.550;2023-04-21T03:01:10;100779.59;;;12.52;100.00
32237;BME280;18726;44.732;10.550;2023-04-21T03:04:14;100788.03;;;12.47;100.00
32237;BME280;18726;44.732;10.550;2023-04-21T03:07:17;100777.50;;;12.45;100.00
32237;BME280;18726;44.732;10.550;2023-04-21T03:10:20;100781.00;;;12.46;100.00
32237;BME280;18726;44.732;10.550;2023-04-21T03:13:24;100782.59;;;12.47;100.00
32237;BME280;18726;44.732;10.550;2023-04-21T03:16:27;100786.38;;;12.42;100.00
32237;BME280;18726;44.732;10.550;2023-04-21T03:19:31;100784.31;;;12.36;100.00
32237;BME280;18726;44.732;10.550;2023-04-21T03:22:35;100779.72;;;12.40;100.00
32237;BME280;18726;44.732;10.550;2023-04-21T03:25:38;100782.81;;;12.38;100.00
32237;BME280;18726;44.732;10.550;2023-04-21T03:28:42;100784.03;;;12.41;100.00
32237;BME280;18726;44.732;10.550;2023-04-21T03:31:45;100782.94;;;12.45;100.00
32237;BME280;18726;44.732;10.550;2023-04-21T03:34:48;100793.50;;;12.47;100.00
32237;BME280;18726;44.732;10.550;2023-04-21T03:37:54;100796.47;;;12.42;100.00
32237;BME280;18726;44.732;10.550;2023-04-21T03:40:57;100804.38;;;12.47;100.00
32237;BME280;18726;44.732;10.550;2023-04-21T03:44:00;100794.72;;;12.49;100.00
32237;BME280;18726;44.732;10.550;2023-04-21T03:47:03;100804.19;;;12.56;100.00
32237;BME280;18726;44.732;10.550;2023-04-21T03:50:07;100806.13;;;12.55;100.00
32237;BME280;18726;44.732;10.550;2023-04-21T03:53:10;100795.72;;;12.41;100.00
32237;BME280;18726;44.732;10.550;2023-04-21T03:56:13;100797.34;;;12.46;100.00
32237;BME280;18726;44.732;10.550;2023-04-21T03:59:16;100800.59;;;12.51;100.00
32237;BME280;18726;44.732;10.550;2023-04-21T04:02:20;100802.88;;;12.49;100.00
32237;BME280;18726;44.732;10.550;2023-04-21T04:05:23;100805.69;;;12.53;100.00
32237;BME280;18726;44.732;10.550;2023-04-21T04:08:27;100812.00;;;12.57;100.00
32237;BME280;18726;44.732;10.550;2023-04-21T04:11:30;100811.75;;;12.62;100.00
32237;BME280;18726;44.732;10.550;2023-04-21T04:14:34;100817.91;;;12.59;100.00
32237;BME280;18726;44.732;10.550;2023-04-21T04:17:37;100822.19;;;12.60;100.00
32237;BME280;18726;44.732;10.550;2023-04-21T04:20:40;100825.38;;;12.62;100.00
32237;BME280;18726;44.732;10.550;2023-04-21T04:23:44;100827.50;;;12.72;100.00
32237;BME280;18726;44.732;10.550;2023-04-21T04:26:47;100830.25;;;12.72;100.00
32237;BME280;18726;44.732;10.550;2023-04-21T04:29:50;100831.63;;;12.82;100.00
32237;BME280;18726;44.732;10.550;2023-04-21T04:32:55;100834.00;;;12.83;100.00
32237;BME280;18726;44.732;10.550;2023-04-21T04:35:59;100830.84;;;12.81;100.00
32237;BME280;18726;44.732;10.550;2023-04-21T04:39:02;100834.78;;;12.84;100.00
32237;BME280;18726;44.732;10.550;2023-04-21T04:42:06;100831.69;;;12.85;100.00
32237;BME280;18726;44.732;10.550;2023-04-21T04:45:13;100838.88;;;12.94;100.00
32237;BME280;18726;44.732;10.550;2023-04-21T04:48:18;100842.97;;;13.03;100.00
32237;BME280;18726;44.732;10.550;2023-04-21T04:51:22;100843.09;;;13.10;100.00
32237;BME280;18726;44.732;10.550;2023-04-21T04:54:25;100841.78;;;13.20;100.00
32237;BME280;18726;44.732;10.550;2023-04-21T04:57:31;100846.59;;;13.27;100.00
32237;BME280;18726;44.732;10.550;2023-04-21T05:00:34;100849.72;;;13.29;100.00
32237;BME280;18726;44.732;10.550;2023-04-21T05:03:39;100857.44;;;13.23;100.00
32237;BME280;18726;44.732;10.550;2023-04-21T05:06:42;100858.28;;;13.27;100.00
32237;BME280;18726;44.732;10.550;2023-04-21T05:09:46;100861.84;;;13.12;100.00
32237;BME280;18726;44.732;10.550;2023-04-21T05:12:49;100864.00;;;13.03;100.00
32237;BME280;18726;44.732;10.550;2023-04-21T06:21:41;100887.91;;;13.29;100.00
32237;BME280;18726;44.732;10.550;2023-04-21T06:24:45;100890.28;;;13.30;100.00
32237;BME280;18726;44.732;10.550;2023-04-21T06:27:48;100893.53;;;13.36;100.00
32237;BME280;18726;44.732;10.550;2023-04-21T06:30:51;100889.94;;;13.32;100.00
32237;BME280;18726;44.732;10.550;2023-04-21T06:33:54;100896.47;;;13.46;100.00
32237;BME280;18726;44.732;10.550;2023-04-21T06:36:58;100894.44;;;13.63;100.00
32237;BME280;18726;44.732;10.550;2023-04-21T06:40:01;100894.72;;;13.58;100.00
32237;BME280;18726;44.732;10.550;2023-04-21T06:43:05;100894.59;;;13.50;100.00
32237;BME280;18726;44.732;10.550;2023-04-21T06:46:09;100900.75;;;13.67;100.00
32237;BME280;18726;44.732;10.550;2023-04-21T06:49:13;100902.97;;;13.80;100.00
32237;BME280;18726;44.732;10.550;2023-04-21T06:52:16;100907.03;;;13.90;100.00
32237;BME280;18726;44.732;10.550;2023-04-21T06:55:19;100910.00;;;13.81;100.00
32237;BME280;18726;44.732;10.550;2023-04-21T06:58:23;100907.44;;;13.92;100.00
32237;BME280;18726;44.732;10.550;2023-04-21T07:01:26;100914.34;;;13.86;100.00
32237;BME280;18726;44.732;10.550;2023-04-21T07:04:30;100907.03;;;13.90;100.00
32237;BME280;18726;44.732;10.550;2023-04-21T07:07:34;100908.25;;;14.15;100.00
32237;BME280;18726;44.732;10.550;2023-04-21T07:10:37;100905.50;;;14.15;100.00
32237;BME280;18726;44.732;10.550;2023-04-21T07:13:41;100905.22;;;14.20;100.00
32237;BME280;18726;44.732;10.550;2023-04-21T07:16:44;100912.75;;;14.50;100.00
32237;BME280;18726;44.732;10.550;2023-04-21T07:19:47;100917.66;;;14.64;100.00
32237;BME280;18726;44.732;10.550;2023-04-21T07:22:50;100930.03;;;14.58;100.00
32237;BME280;18726;44.732;10.550;2023-04-21T07:25:54;100920.75;;;14.62;100.00
32237;BME280;18726;44.732;10.550;2023-04-21T07:28:57;100925.50;;;14.65;100.00
32237;BME280;18726;44.732;10.550;2023-04-21T07:32:00;100930.41;;;14.82;100.00
32237;BME280;18726;44.732;10.550;2023-04-21T07:35:04;100932.91;;;14.91;100.00
32237;BME280;18726;44.732;10.550;2023-04-21T07:38:08;100937.03;;;15.08;100.00
32237;BME280;18726;44.732;10.550;2023-04-21T07:41:12;100944.22;;;15.19;100.00
32237;BME280;18726;44.732;10.550;2023-04-21T07:44:15;100940.44;;;15.28;100.00
32237;BME280;18726;44.732;10.550;2023-04-21T07:47:18;100941.84;;;15.18;100.00
32237;BME280;18726;44.732;10.550;2023-04-21T07:50:22;100951.63;;;15.49;100.00
32237;BME280;18726;44.732;10.550;2023-04-21T07:53:25;100948.88;;;15.79;100.00
32237;BME280;18726;44.732;10.550;2023-04-21T07:56:29;100954.69;;;15.74;100.00
32237;BME280;18726;44.732;10.550;2023-04-21T07:59:33;100952.03;;;15.81;100.00
32237;BME280;18726;44.732;10.550;2023-04-21T08:02:37;100971.38;;;16.36;100.00
32237;BME280;18726;44.732;10.550;2023-04-21T08:05:40;100970.19;;;16.84;100.00
32237;BME280;18726;44.732;10.550;2023-04-21T08:08:43;100967.28;;;16.63;100.00
32237;BME280;18726;44.732;10.550;2023-04-21T08:11:46;100973.31;;;16.35;100.00
32237;BME280;18726;44.732;10.550;2023-04-21T08:14:50;100977.66;;;16.40;100.00
32237;BME280;18726;44.732;10.550;2023-04-21T08:17:53;100975.94;;;16.25;100.00
32237;BME280;18726;44.732;10.550;2023-04-21T08:20:57;100973.50;;;16.12;100.00
32237;BME280;18726;44.732;10.550;2023-04-21T08:24:00;100980.59;;;16.20;100.00
32237;BME280;18726;44.732;10.550;2023-04-21T08:27:04;100984.88;;;15.77;100.00
32237;BME280;18726;44.732;10.550;2023-04-21T08:30:07;100978.66;;;15.50;100.00
32237;BME280;18726;44.732;10.550;2023-04-21T08:33:11;100991.22;;;15.55;100.00
32237;BME280;18726;44.732;10.550;2023-04-21T08:36:16;100987.50;;;15.40;100.00
32237;BME280;18726;44.732;10.550;2023-04-21T08:39:19;100989.19;;;15.48;100.00
32237;BME280;18726;44.732;10.550;2023-04-21T08:42:22;100986.53;;;15.85;100.00
32237;BME280;18726;44.732;10.550;2023-04-21T08:45:26;100990.50;;;15.92;100.00
32237;BME280;18726;44.732;10.550;2023-04-21T08:48:30;100988.59;;;16.36;100.00
32237;BME280;18726;44.732;10.550;2023-04-21T08:51:34;100992.88;;;16.74;100.00
32237;BME280;18726;44.732;10.550;2023-04-21T08:54:38;100987.75;;;17.31;100.00
32237;BME280;18726;44.732;10.550;2023-04-21T08:57:43;100995.19;;;17.34;100.00
32237;BME280;18726;44.732;10.550;2023-04-21T09:00:46;100997.41;;;17.80;100.00
32237;BME280;18726;44.732;10.550;2023-04-21T09:03:49;100994.34;;;18.20;100.00
32237;BME280;18726;44.732;10.550;2023-04-21T09:06:53;101005.75;;;18.30;100.00
32237;BME280;18726;44.732;10.550;2023-04-21T09:09:56;100994.38;;;18.35;100.00
32237;BME280;18726;44.732;10.550;2023-04-21T09:13:05;101007.75;;;18.97;100.00
32237;BME280;18726;44.732;10.550;2023-04-21T09:16:19;101003.69;;;20.83;100.00
32237;BME280;18726;44.732;10.550;2023-04-21T09:19:22;101004.69;;;23.06;100.00
32237;BME280;18726;44.732;10.550;2023-04-21T09:22:28;101013.94;;;24.50;81.91
32237;BME280;18726;44.732;10.550;2023-04-21T09:25:33;101009.25;;;22.46;88.07
32237;BME280;18726;44.732;10.550;2023-04-21T09:28:41;101012.78;;;21.59;96.38
32237;BME280;18726;44.732;10.550;2023-04-21T09:31:45;101000.06;;;19.79;100.00
32237;BME280;18726;44.732;10.550;2023-04-21T09:34:48;101000.53;;;20.29;100.00
32237;BME280;18726;44.732;10.550;2023-04-21T09:37:52;100997.97;;;19.97;100.00
32237;BME280;18726;44.732;10.550;2023-04-21T09:40:56;101002.69;;;20.00;100.00
32237;BME280;18726;44.732;10.550;2023-04-21T09:43:59;100994.63;;;20.31;100.00
32237;BME280;18726;44.732;10.550;2023-04-21T09:47:09;100997.88;;;20.18;100.00
32237;BME280;18726;44.732;10.550;2023-04-21T09:50:14;100993.13;;;20.74;100.00
32237;BME280;18726;44.732;10.550;2023-04-21T09:53:19;101005.28;;;20.25;100.00
32237;BME280;18726;44.732;10.550;2023-04-21T09:56:24;100993.22;;;20.01;100.00
32237;BME280;18726;44.732;10.550;2023-04-21T09:59:34;101000.75;;;20.56;100.00
32237;BME280;18726;44.732;10.550;2023-04-21T10:02:42;100996.44;;;21.00;100.00
32237;BME280;18726;44.732;10.550;2023-04-21T10:05:45;100992.84;;;19.99;100.00
32237;BME280;18726;44.732;10.550;2023-04-21T10:08:49;100987.50;;;20.37;100.00
32237;BME280;18726;44.732;10.550;2023-04-21T10:11:53;100994.31;;;20.73;100.00
32237;BME280;18726;44.732;10.550;2023-04-21T10:14:57;100994.06;;;20.57;100.00
32237;BME280;18726;44.732;10.550;2023-04-21T10:18:10;100993.13;;;20.19;100.00
32237;BME280;18726;44.732;10.550;2023-04-21T10:21:16;100983.34;;;19.06;100.00
32237;BME280;18726;44.732;10.550;2023-04-21T10:24:27;100983.41;;;18.63;100.00
32237;BME280;18726;44.732;10.550;2023-04-21T10:27:32;100979.44;;;18.14;100.00
32237;BME280;18726;44.732;10.550;2023-04-21T10:30:36;100978.25;;;18.30;100.00
32237;BME280;18726;44.732;10.550;2023-04-21T10:33:39;100971.56;;;18.23;100.00
32237;BME280;18726;44.732;10.550;2023-04-21T10:39:58;100976.66;;;18.21;100.00
32237;BME280;18726;44.732;10.550;2023-04-21T10:43:02;100980.22;;;18.40;100.00
32237;BME280;18726;44.732;10.550;2023-04-21T10:49:29;100973.19;;;18.67;100.00
32237;BME280;18726;44.732;10.550;2023-04-21T10:52:32;100974.72;;;18.54;100.00
32237;BME280;18726;44.732;10.550;2023-04-21T10:55:36;100982.59;;;18.38;100.00
32237;BME280;18726;44.732;10.550;2023-04-21T10:58:39;100984.13;;;18.25;100.00
32237;BME280;18726;44.732;10.550;2023-04-21T11:01:43;100983.34;;;18.20;100.00
32237;BME280;18726;44.732;10.550;2023-04-21T11:04:51;100981.00;;;18.51;100.00
32237;BME280;18726;44.732;10.550;2023-04-21T11:08:02;100985.34;;;18.59;100.00
32237;BME280;18726;44.732;10.550;2023-04-21T11:11:06;100984.19;;;18.67;100.00
32237;BME280;18726;44.732;10.550;2023-04-21T11:14:09;100979.06;;;18.91;100.00
32237;BME280;18726;44.732;10.550;2023-04-21T11:17:13;100983.38;;;18.88;100.00
32237;BME280;18726;44.732;10.550;2023-04-21T11:20:16;100980.22;;;18.89;100.00
32237;BME280;18726;44.732;10.550;2023-04-21T11:23:20;100986.13;;;18.99;100.00
32237;BME280;18726;44.732;10.550;2023-04-21T11:26:30;100984.16;;;19.03;100.00
32237;BME280;18726;44.732;10.550;2023-04-21T11:29:33;100975.78;;;19.38;100.00
32237;BME280;18726;44.732;10.550;2023-04-21T11:32:37;100978.59;;;19.24;100.00
32237;BME280;18726;44.732;10.550;2023-04-21T11:35:40;100980.94;;;19.26;100.00
32237;BME280;18726;44.732;10.550;2023-04-21T11:38:43;100972.94;;;19.67;100.00
32237;BME280;18726;44.732;10.550;2023-04-21T11:41:47;100977.34;;;19.36;100.00
32237;BME280;18726;44.732;10.550;2023-04-21T11:44:52;100971.06;;;19.35;100.00
32237;BME280;18726;44.732;10.550;2023-04-21T11:48:11;100966.41;;;20.09;100.00
32237;BME280;18726;44.732;10.550;2023-04-21T11:51:18;100967.63;;;20.60;97.59
32237;BME280;18726;44.732;10.550;2023-04-21T11:54:21;100966.19;;;20.41;98.53
32237;BME280;18726;44.732;10.550;2023-04-21T11:57:27;100958.56;;;20.00;95.52
32237;BME280;18726;44.732;10.550;2023-04-21T12:00:31;100969.53;;;20.14;97.18
32237;BME280;18726;44.732;10.550;2023-04-21T12:03:34;100963.31;;;19.96;100.00
32237;BME280;18726;44.732;10.550;2023-04-21T12:06:38;100967.19;;;20.09;93.12
32237;BME280;18726;44.732;10.550;2023-04-21T12:09:41;100951.25;;;20.35;100.00
32237;BME280;18726;44.732;10.550;2023-04-21T12:12:45;100960.22;;;19.91;100.00
32237;BME280;18726;44.732;10.550;2023-04-21T12:15:49;100961.50;;;20.34;100.00
32237;BME280;18726;44.732;10.550;2023-04-21T12:18:53;100967.94;;;20.13;93.89
32237;BME280;18726;44.732;10.550;2023-04-21T12:21:57;100973.44;;;20.20;90.89
32237;BME280;18726;44.732;10.550;2023-04-21T12:25:00;100971.09;;;20.15;91.05
32237;BME280;18726;44.732;10.550;2023-04-21T12:28:04;100965.50;;;21.12;95.51
32237;BME280;18726;44.732;10.550;2023-04-21T12:31:10;100955.63;;;22.09;89.48
32237;BME280;18726;44.732;10.550;2023-04-21T12:34:13;100964.94;;;23.12;85.95
32237;BME280;18726;44.732;10.550;2023-04-21T12:37:17;100960.50;;;23.58;77.82
32237;BME280;18726;44.732;10.550;2023-04-21T12:40:21;100959.00;;;23.34;75.26
32237;BME280;18726;44.732;10.550;2023-04-21T12:43:24;100949.34;;;22.05;80.53
32237;BME280;18726;44.732;10.550;2023-04-21T12:46:28;100946.13;;;22.10;84.63
32237;BME280;18726;44.732;10.550;2023-04-21T12:49:31;100946.53;;;21.51;80.74
32237;BME280;18726;44.732;10.550;2023-04-21T12:52:35;100944.00;;;21.64;83.45
32237;BME280;18726;44.732;10.550;2023-04-21T12:55:38;100933.81;;;20.89;83.70
32237;BME280;18726;44.732;10.550;2023-04-21T12:58:42;100933.59;;;20.73;81.90
32237;BME280;18726;44.732;10.550;2023-04-21T13:01:45;100927.38;;;21.00;88.28
32237;BME280;18726;44.732;10.550;2023-04-21T13:04:49;100928.59;;;20.99;85.98
32237;BME280;18726;44.732;10.550;2023-04-21T13:07:52;100927.66;;;21.09;83.10
32237;BME280;18726;44.732;10.550;2023-04-21T13:10:56;100923.91;;;21.30;88.73
32237;BME280;18726;44.732;10.550;2023-04-21T13:14:00;100925.38;;;20.66;88.76
32237;BME280;18726;44.732;10.550;2023-04-21T13:17:05;100918.16;;;20.31;87.80
32237;BME280;18726;44.732;10.550;2023-04-21T13:20:09;100917.13;;;20.59;90.02
32237;BME280;18726;44.732;10.550;2023-04-21T13:23:13;100907.03;;;20.83;89.15
32237;BME280;18726;44.732;10.550;2023-04-21T13:26:17;100913.34;;;20.46;95.42
32237;BME280;18726;44.732;10.550;2023-04-21T13:29:20;100907.63;;;20.64;90.73
32237;BME280;18726;44.732;10.550;2023-04-21T13:32:24;100903.19;;;20.29;91.13
32237;BME280;18726;44.732;10.550;2023-04-21T13:35:27;100906.75;;;20.26;96.73
32237;BME280;18726;44.732;10.550;2023-04-21T13:38:31;100909.78;;;20.45;95.08
32237;BME280;18726;44.732;10.550;2023-04-21T13:41:34;100908.44;;;21.02;87.26
32237;BME280;18726;44.732;10.550;2023-04-21T13:44:37;100905.16;;;21.44;89.60
32237;BME280;18726;44.732;10.550;2023-04-21T13:47:41;100907.38;;;21.56;86.00
32237;BME280;18726;44.732;10.550;2023-04-21T13:50:45;100905.41;;;21.27;86.35
32237;BME280;18726;44.732;10.550;2023-04-21T13:53:49;100899.28;;;21.39;81.12
32237;BME280;18726;44.732;10.550;2023-04-21T13:56:52;100889.50;;;21.34;84.55
32237;BME280;18726;44.732;10.550;2023-04-21T13:59:56;100894.00;;;21.21;83.54
32237;BME280;18726;44.732;10.550;2023-04-21T14:02:59;100884.31;;;21.06;84.94
32237;BME280;18726;44.732;10.550;2023-04-21T14:06:02;100882.41;;;21.33;86.76
32237;BME280;18726;44.732;10.550;2023-04-21T14:09:06;100879.78;;;21.80;83.48
32237;BME280;18726;44.732;10.550;2023-04-21T14:12:11;100873.00;;;21.84;85.11
32237;BME280;18726;44.732;10.550;2023-04-21T14:15:15;100874.41;;;22.43;79.78
32237;BME280;18726;44.732;10.550;2023-04-21T14:18:18;100889.03;;;21.66;76.89
32237;BME280;18726;44.732;10.550;2023-04-21T14:21:21;100879.06;;;21.45;79.48
32237;BME280;18726;44.732;10.550;2023-04-21T14:24:25;100873.75;;;21.31;78.05
32237;BME280;18726;44.732;10.550;2023-04-21T14:27:31;100870.13;;;21.04;84.40
32237;BME280;18726;44.732;10.550;2023-04-21T14:30:34;100877.66;;;21.00;81.08
32237;BME280;18726;44.732;10.550;2023-04-21T14:33:40;100872.41;;;21.09;77.77
32237;BME280;18726;44.732;10.550;2023-04-21T14:36:44;100868.44;;;21.10;80.95
32237;BME280;18726;44.732;10.550;2023-04-21T14:39:51;100870.22;;;21.58;77.48
32237;BME280;18726;44.732;10.550;2023-04-21T14:42:55;100875.06;;;21.50;77.38
32237;BME280;18726;44.732;10.550;2023-04-21T14:45:58;100864.94;;;21.40;80.80
32237;BME280;18726;44.732;10.550;2023-04-21T14:49:02;100873.34;;;20.99;80.00
32237;BME280;18726;44.732;10.550;2023-04-21T14:52:06;100865.97;;;21.19;81.78
32237;BME280;18726;44.732;10.550;2023-04-21T14:55:09;100870.84;;;21.69;76.42
32237;BME280;18726;44.732;10.550;2023-04-21T14:58:12;100862.59;;;21.92;76.31
32237;BME280;18726;44.732;10.550;2023-04-21T15:01:16;100871.25;;;21.67;81.14
32237;BME280;18726;44.732;10.550;2023-04-21T15:04:19;100867.38;;;21.65;82.86
32237;BME280;18726;44.732;10.550;2023-04-21T15:07:22;100861.97;;;21.27;82.19
32237;BME280;18726;44.732;10.550;2023-04-21T15:10:25;100857.25;;;21.24;87.65
32237;BME280;18726;44.732;10.550;2023-04-21T15:13:29;100863.13;;;21.56;83.27
32237;BME280;18726;44.732;10.550;2023-04-21T15:16:32;100854.09;;;21.79;82.58
32237;BME280;18726;44.732;10.550;2023-04-21T15:19:35;100862.69;;;21.31;86.64
32237;BME280;18726;44.732;10.550;2023-04-21T15:22:39;100853.78;;;20.82;89.21
32237;BME280;18726;44.732;10.550;2023-04-21T15:25:43;100870.59;;;20.61;92.78
32237;BME280;18726;44.732;10.550;2023-04-21T15:28:46;100859.41;;;19.86;100.00
32237;BME280;18726;44.732;10.550;2023-04-21T15:31:50;100869.34;;;19.73;100.00
32237;BME280;18726;44.732;10.550;2023-04-21T15:34:53;100869.84;;;19.61;100.00
32237;BME280;18726;44.732;10.550;2023-04-21T15:37:56;100865.13;;;19.58;100.00
32237;BME280;18726;44.732;10.550;2023-04-21T15:40:59;100875.38;;;19.53;100.00
32237;BME280;18726;44.732;10.550;2023-04-21T15:44:03;100876.84;;;19.69;100.00
32237;BME280;18726;44.732;10.550;2023-04-21T15:47:06;100873.22;;;19.82;100.00
32237;BME280;18726;44.732;10.550;2023-04-21T15:50:10;100874.81;;;19.80;100.00
32237;BME280;18726;44.732;10.550;2023-04-21T15:53:13;100873.59;;;19.84;100.00
32237;BME280;18726;44.732;10.550;2023-04-21T15:56:16;100878.19;;;20.02;100.00
32237;BME280;18726;44.732;10.550;2023-04-21T15:59:20;100879.78;;;19.99;100.00
32237;BME280;18726;44.732;10.550;2023-04-21T16:02:23;100865.63;;;19.97;100.00
32237;BME280;18726;44.732;10.550;2023-04-21T16:05:26;100869.97;;;19.95;100.00
32237;BME280;18726;44.732;10.550;2023-04-21T16:08:29;100864.50;;;19.91;100.00
32237;BME280;18726;44.732;10.550;2023-04-21T16:11:35;100870.84;;;19.84;100.00
32237;BME280;18726;44.732;10.550;2023-04-21T16:14:39;100870.91;;;19.74;100.00
32237;BME280;18726;44.732;10.550;2023-04-21T16:17:42;100872.81;;;19.87;100.00
32237;BME280;18726;44.732;10.550;2023-04-21T16:20:45;100871.25;;;19.83;100.00
32237;BME280;18726;44.732;10.550;2023-04-21T16:23:49;100873.09;;;19.97;100.00
32237;BME280;18726;44.732;10.550;2023-04-21T16:26:52;100870.88;;;19.81;100.00
32237;BME280;18726;44.732;10.550;2023-04-21T16:29:55;100873.56;;;19.92;100.00
32237;BME280;18726;44.732;10.550;2023-04-21T16:32:59;100862.63;;;19.77;100.00
32237;BME280;18726;44.732;10.550;2023-04-21T16:36:02;100858.28;;;19.76;100.00
32237;BME280;18726;44.732;10.550;2023-04-21T16:39:06;100859.88;;;19.74;99.28
32237;BME280;18726;44.732;10.550;2023-04-21T16:42:09;100865.06;;;19.65;98.88
32237;BME280;18726;44.732;10.550;2023-04-21T16:45:12;100861.06;;;19.76;99.76
32237;BME280;18726;44.732;10.550;2023-04-21T16:48:16;100861.16;;;19.62;96.87
32237;BME280;18726;44.732;10.550;2023-04-21T16:51:19;100863.59;;;19.42;100.00